Time;durP1;ratioP1;P1;durP2;ratioP2;P2;SDS_P1;SDS_P2;PMS_P1;PMS_P2;Temp;Humidity;BMP_temperature;BMP_pressure;BME280_temperature;BME280_humidity;BME280_pressure;Samples;Min_cycle;Max_cycle;Signal;HPM_P1;HPM_P2
2020/12/09 00:01:51;;;;;;;23.27;9.55;;;4.60;99.90;;;;;;5018921;28;20124;-68
2020/12/09 00:04:18;;;;;;;22.80;9.77;;;4.60;99.90;;;;;;5016366;28;20270;-67
2020/12/09 00:06:44;;;;;;;20.20;9.43;;;4.60;99.90;;;;;;5020781;28;20041;-68
2020/12/09 00:09:12;;;;;;;32.35;10.90;;;4.50;99.90;;;;;;5020273;28;20522;-70
2020/12/09 00:11:39;;;;;;;31.45;11.82;;;4.60;99.90;;;;;;5010215;28;20037;-67
2020/12/09 00:14:05;;;;;;;21.73;9.40;;;4.60;99.90;;;;;;5040010;28;20029;-67
2020/12/09 00:16:31;;;;;;;21.38;9.98;;;4.50;99.90;;;;;;5040760;28;20038;-68
2020/12/09 00:18:57;;;;;;;21.27;10.23;;;4.50;99.90;;;;;;5018427;28;20049;-67
2020/12/09 00:21:24;;;;;;;19.13;9.65;;;4.50;99.90;;;;;;5015371;28;20403;-69
2020/12/09 00:23:51;;;;;;;35.30;12.25;;;4.50;99.90;;;;;;5020246;28;20112;-67
2020/12/09 00:26:18;;;;;;;23.85;9.60;;;4.50;99.90;;;;;;5019047;28;20510;-67
2020/12/09 00:28:43;;;;;;;24.38;10.60;;;4.50;99.90;;;;;;5019055;28;20513;-67
2020/12/09 00:31:09;;;;;;;20.10;9.43;;;4.40;99.90;;;;;;5017943;28;20032;-70
2020/12/09 00:33:34;;;;;;;20.15;10.85;;;4.40;99.90;;;;;;5017618;28;20037;-68
2020/12/09 00:36:00;;;;;;;22.08;10.65;;;4.40;99.90;;;;;;5019412;28;20061;-68
2020/12/09 00:38:26;;;;;;;20.25;10.23;;;4.40;99.90;;;;;;5015357;28;20096;-67
2020/12/09 00:40:51;;;;;;;22.58;11.07;;;4.40;99.90;;;;;;5019119;28;20038;-68
2020/12/09 00:43:17;;;;;;;21.63;10.82;;;4.30;99.90;;;;;;5016432;28;20074;-67
2020/12/09 00:45:42;;;;;;;22.60;11.32;;;4.40;99.90;;;;;;5014731;28;20282;-67
2020/12/09 00:48:08;;;;;;;22.85;10.93;;;4.40;99.90;;;;;;5019679;28;20036;-66
2020/12/09 00:50:33;;;;;;;22.27;11.40;;;4.40;99.90;;;;;;5021361;28;20039;-68
2020/12/09 00:52:59;;;;;;;26.85;11.02;;;4.40;99.90;;;;;;5014065;28;20080;-67
2020/12/09 00:55:25;;;;;;;23.40;11.18;;;4.40;99.90;;;;;;5015506;28;20038;-69
2020/12/09 00:57:50;;;;;;;22.60;10.65;;;4.40;99.90;;;;;;5018264;28;20060;-67
2020/12/09 01:00:16;;;;;;;20.88;9.85;;;4.30;99.90;;;;;;5014224;28;20030;-67
2020/12/09 01:02:42;;;;;;;25.35;11.73;;;4.30;99.90;;;;;;5016640;28;20041;-67
2020/12/09 01:05:09;;;;;;;22.92;11.80;;;4.30;99.90;;;;;;5039132;28;20034;-67
2020/12/09 01:07:35;;;;;;;22.10;9.90;;;4.30;99.90;;;;;;5008164;28;20030;-67
2020/12/09 01:10:01;;;;;;;25.00;11.20;;;4.30;99.90;;;;;;5016841;28;20168;-68
2020/12/09 01:12:26;;;;;;;23.83;11.43;;;4.30;99.90;;;;;;5019268;28;20113;-68
2020/12/09 01:14:52;;;;;;;25.02;11.50;;;4.30;99.90;;;;;;5018677;28;20700;-66
2020/12/09 01:17:18;;;;;;;22.63;10.25;;;4.30;99.90;;;;;;5016687;28;20132;-67
2020/12/09 01:19:43;;;;;;;22.70;10.25;;;4.30;99.90;;;;;;5017387;28;20041;-69
2020/12/09 01:22:09;;;;;;;23.52;10.35;;;4.30;99.90;;;;;;5014791;28;20037;-67
2020/12/09 01:24:34;;;;;;;22.02;10.55;;;4.30;99.90;;;;;;5016755;28;20110;-67
2020/12/09 01:27:00;;;;;;;26.25;10.68;;;4.30;99.90;;;;;;5019371;28;20025;-67
2020/12/09 01:29:26;;;;;;;30.98;11.23;;;4.30;99.90;;;;;;5020034;28;20515;-71
2020/12/09 01:31:59;;;;;;;23.45;10.45;;;4.20;99.90;;;;;;5018250;28;20033;-67
2020/12/09 01:34:26;;;;;;;20.23;9.88;;;4.20;99.90;;;;;;5020948;28;20030;-67
2020/12/09 01:36:52;;;;;;;20.17;9.48;;;4.20;99.90;;;;;;5018411;28;20076;-68
2020/12/09 01:39:18;;;;;;;24.17;11.23;;;4.20;99.90;;;;;;5018183;28;20048;-68
2020/12/09 01:41:44;;;;;;;20.13;10.65;;;4.20;99.90;;;;;;5017043;28;20047;-67
2020/12/09 01:44:10;;;;;;;23.75;10.38;;;4.20;99.90;;;;;;5040297;28;20076;-67
2020/12/09 01:46:36;;;;;;;21.38;9.70;;;4.20;99.90;;;;;;5020904;28;20678;-67
2020/12/09 01:49:02;;;;;;;22.10;10.95;;;4.10;99.90;;;;;;5016994;28;20045;-70
2020/12/09 01:51:29;;;;;;;20.13;10.23;;;4.10;99.90;;;;;;5024807;28;20038;-68
2020/12/09 01:53:56;;;;;;;22.88;10.60;;;4.10;99.90;;;;;;5028864;28;20395;-69
2020/12/09 01:56:23;;;;;;;23.05;11.70;;;4.10;99.90;;;;;;5023949;28;20068;-68
2020/12/09 01:58:50;;;;;;;22.17;9.35;;;4.10;99.90;;;;;;5024425;28;20433;-67
2020/12/09 02:01:17;;;;;;;23.17;10.73;;;4.10;99.90;;;;;;5023738;28;20034;-68
2020/12/09 02:03:42;;;;;;;22.20;9.98;;;4.00;99.90;;;;;;5022216;28;20042;-66
2020/12/09 02:06:08;;;;;;;22.17;10.48;;;4.00;99.90;;;;;;5024302;28;20036;-67
2020/12/09 02:08:34;;;;;;;22.52;10.93;;;4.00;99.90;;;;;;5020348;28;20184;-68
2020/12/09 02:11:00;;;;;;;25.00;10.38;;;3.90;99.90;;;;;;5023447;28;20110;-67
2020/12/09 02:13:27;;;;;;;24.80;11.13;;;3.90;99.90;;;;;;5020602;28;20646;-67
2020/12/09 02:15:53;;;;;;;24.75;11.60;;;3.80;99.90;;;;;;5022533;28;20083;-66
2020/12/09 02:18:19;;;;;;;21.00;10.13;;;3.70;99.90;;;;;;5021329;28;20040;-67
2020/12/09 02:20:44;;;;;;;24.95;10.43;;;3.60;99.90;;;;;;5019717;28;20477;-67
2020/12/09 02:23:10;;;;;;;24.92;11.32;;;3.50;99.90;;;;;;5019242;28;20044;-69
2020/12/09 02:25:36;;;;;;;23.90;10.98;;;3.40;99.90;;;;;;5024223;28;20593;-68
2020/12/09 02:28:02;;;;;;;24.42;11.77;;;3.40;99.90;;;;;;5032897;28;20042;-67
2020/12/09 02:30:27;;;;;;;22.75;10.60;;;3.30;99.90;;;;;;5022488;28;20025;-68
2020/12/09 02:32:53;;;;;;;22.75;10.88;;;3.20;99.90;;;;;;5020414;28;20088;-67
2020/12/09 02:35:18;;;;;;;27.65;12.02;;;3.20;99.90;;;;;;5019336;28;20044;-68
2020/12/09 02:37:44;;;;;;;27.80;12.05;;;3.10;99.90;;;;;;5044384;28;20022;-67
2020/12/09 02:40:10;;;;;;;31.27;12.77;;;3.00;99.90;;;;;;5020688;28;20040;-67
2020/12/09 02:42:35;;;;;;;24.27;10.98;;;3.00;99.90;;;;;;5019499;28;20026;-67
2020/12/09 02:45:01;;;;;;;23.13;10.90;;;3.00;99.90;;;;;;5017762;28;20643;-68
2020/12/09 02:47:26;;;;;;;28.45;12.07;;;2.90;99.90;;;;;;5022269;28;20029;-70
2020/12/09 02:49:52;;;;;;;25.38;12.00;;;2.90;99.90;;;;;;5018611;28;20553;-70
2020/12/09 02:52:17;;;;;;;23.38;10.10;;;2.80;99.90;;;;;;5018559;28;20498;-70
2020/12/09 02:54:43;;;;;;;22.90;11.63;;;2.80;99.90;;;;;;5044436;28;20030;-67
2020/12/09 02:57:08;;;;;;;24.90;11.88;;;2.80;99.90;;;;;;5021956;28;20033;-68
2020/12/09 02:59:34;;;;;;;28.55;12.75;;;2.70;99.90;;;;;;5019049;28;20517;-68
2020/12/09 03:01:59;;;;;;;25.13;10.82;;;2.70;99.90;;;;;;5022206;28;20044;-66
2020/12/09 03:04:25;;;;;;;28.13;11.10;;;2.70;99.90;;;;;;5021069;28;20029;-67
2020/12/09 03:06:51;;;;;;;26.13;11.38;;;2.70;99.90;;;;;;5023748;28;20033;-68
2020/12/09 03:09:16;;;;;;;24.65;11.00;;;2.60;99.90;;;;;;5020865;28;20037;-68
2020/12/09 03:11:42;;;;;;;22.55;11.05;;;2.60;99.90;;;;;;5020259;28;20033;-68
2020/12/09 03:14:07;;;;;;;26.08;11.90;;;2.60;99.90;;;;;;5043248;28;20037;-68
2020/12/09 03:16:33;;;;;;;27.52;12.32;;;2.50;99.90;;;;;;5021542;28;20029;-67
2020/12/09 03:18:59;;;;;;;25.73;12.55;;;2.50;99.90;;;;;;5018808;28;20054;-67
2020/12/09 03:21:24;;;;;;;26.77;11.95;;;2.50;99.90;;;;;;5017830;28;20030;-67
2020/12/09 03:23:50;;;;;;;26.70;12.15;;;2.40;99.90;;;;;;5021283;28;20128;-68
2020/12/09 03:26:16;;;;;;;27.70;11.77;;;2.40;99.90;;;;;;5019947;28;20641;-66
2020/12/09 03:28:41;;;;;;;33.83;12.32;;;2.40;99.90;;;;;;5043225;28;20045;-68
2020/12/09 03:31:08;;;;;;;30.40;13.50;;;2.40;99.90;;;;;;5019853;28;20413;-68
2020/12/09 03:33:34;;;;;;;56.28;14.48;;;2.40;99.90;;;;;;5018541;28;20447;-68
2020/12/09 03:35:59;;;;;;;68.00;14.35;;;2.40;99.90;;;;;;5021812;28;20060;-69
2020/12/09 03:38:25;;;;;;;113.97;16.05;;;2.40;99.90;;;;;;5020646;28;20068;-67
2020/12/09 03:40:51;;;;;;;120.82;16.40;;;2.40;99.90;;;;;;5018637;28;20110;-67
2020/12/09 03:43:17;;;;;;;168.70;16.27;;;2.40;99.90;;;;;;5020636;28;20041;-68
2020/12/09 03:45:42;;;;;;;184.23;14.75;;;2.40;99.90;;;;;;5021177;28;20038;-70
2020/12/09 03:48:08;;;;;;;176.85;15.65;;;2.50;99.90;;;;;;5024578;28;20117;-68
2020/12/09 03:50:34;;;;;;;124.03;12.85;;;2.50;99.90;;;;;;5018576;28;20116;-66
2020/12/09 03:53:00;;;;;;;164.32;14.45;;;2.50;99.90;;;;;;5019544;28;20086;-68
2020/12/09 03:55:25;;;;;;;192.40;14.18;;;2.40;99.90;;;;;;5018529;28;20041;-68
2020/12/09 03:57:51;;;;;;;108.35;14.18;;;2.40;99.90;;;;;;5020460;28;20319;-67
2020/12/09 04:00:16;;;;;;;88.10;11.50;;;2.30;99.90;;;;;;5017718;28;20036;-67
2020/12/09 04:02:42;;;;;;;154.30;12.27;;;2.30;99.90;;;;;;5017385;28;20072;-67
2020/12/09 04:05:08;;;;;;;61.17;9.18;;;2.30;99.90;;;;;;5019448;28;20041;-69
2020/12/09 04:07:34;;;;;;;97.47;10.13;;;2.30;99.90;;;;;;5021343;28;20037;-66
2020/12/09 04:10:00;;;;;;;66.97;9.32;;;2.20;99.90;;;;;;5020606;28;20083;-67
2020/12/09 04:12:25;;;;;;;100.38;10.35;;;2.10;99.90;;;;;;5017736;28;20095;-68
2020/12/09 04:14:51;;;;;;;79.38;10.15;;;1.90;99.90;;;;;;5016724;28;20028;-67
2020/12/09 04:17:17;;;;;;;77.43;10.32;;;1.90;99.90;;;;;;5020292;28;20060;-67
2020/12/09 04:19:45;;;;;;;73.63;9.68;;;1.80;99.90;;;;;;5017342;28;20509;-67
2020/12/09 04:22:10;;;;;;;83.60;9.43;;;1.80;99.90;;;;;;5041296;28;20129;-67
2020/12/09 04:24:36;;;;;;;63.50;9.85;;;1.80;99.90;;;;;;5020124;28;20109;-68
2020/12/09 04:27:01;;;;;;;122.72;10.27;;;1.80;99.90;;;;;;5021116;28;20037;-66
2020/12/09 04:29:27;;;;;;;110.35;10.27;;;1.70;99.90;;;;;;5021696;28;20038;-66
2020/12/09 04:31:52;;;;;;;75.20;8.73;;;1.60;99.90;;;;;;5012258;28;20041;-67
2020/12/09 04:34:19;;;;;;;71.22;8.20;;;1.40;99.90;;;;;;5018189;28;20041;-67
2020/12/09 04:36:46;;;;;;;88.43;10.15;;;1.40;99.90;;;;;;5021484;28;20037;-66
2020/12/09 04:39:12;;;;;;;103.93;9.88;;;1.30;99.90;;;;;;5040787;23;20064;-63
2020/12/09 04:41:37;;;;;;;43.40;8.00;;;1.20;99.90;;;;;;5019107;28;20041;-64
2020/12/09 04:44:04;;;;;;;45.83;7.25;;;1.10;99.90;;;;;;5018124;28;20493;-64
2020/12/09 04:46:30;;;;;;;56.65;7.75;;;1.10;99.90;;;;;;5016583;28;20058;-64
2020/12/09 04:48:58;;;;;;;66.40;7.78;;;1.00;99.90;;;;;;5020177;28;20029;-63
2020/12/09 04:51:58;;;;;;;35.50;7.13;;;0.90;99.90;;;;;;5012941;28;20049;-64
2020/12/09 04:54:38;;;;;;;34.53;7.60;;;0.90;99.90;;;;;;5013676;28;20129;-64
2020/12/09 04:57:37;;;;;;;49.33;7.65;;;1.00;99.90;;;;;;5015783;28;20414;-63
2020/12/09 05:00:08;;;;;;;79.70;8.60;;;0.90;99.90;;;;;;5015615;28;20042;-64
2020/12/09 05:02:45;;;;;;;84.15;8.90;;;0.90;99.90;;;;;;5017704;28;20037;-64
2020/12/09 05:05:13;;;;;;;79.10;9.70;;;0.90;99.90;;;;;;5042448;28;20026;-63
2020/12/09 05:07:45;;;;;;;91.45;9.40;;;0.90;99.90;;;;;;5017276;28;20084;-63
2020/12/09 05:10:14;;;;;;;70.28;10.18;;;0.80;99.90;;;;;;5018885;28;20036;-63
2020/12/09 05:12:42;;;;;;;40.72;8.27;;;0.80;99.90;;;;;;5018623;28;20074;-63
2020/12/09 05:15:11;;;;;;;71.25;9.27;;;0.80;99.90;;;;;;5018553;28;20053;-63
2020/12/09 05:17:49;;;;;;;33.25;8.27;;;0.80;99.90;;;;;;5018789;28;20033;-63
2020/12/09 05:20:23;;;;;;;102.13;11.30;;;0.80;99.90;;;;;;5043132;28;20041;-63
2020/12/09 05:22:54;;;;;;;129.70;11.30;;;0.80;99.90;;;;;;5012187;28;20490;-63
2020/12/09 05:25:21;;;;;;;70.43;9.30;;;0.60;99.90;;;;;;5010732;28;20030;-64
2020/12/09 05:27:47;;;;;;;41.70;8.32;;;0.60;99.90;;;;;;5019782;28;20026;-63
2020/12/09 05:30:12;;;;;;;62.47;9.57;;;0.60;99.90;;;;;;5015761;28;20537;-64
2020/12/09 05:32:53;;;;;;;61.92;9.43;;;0.70;99.90;;;;;;5009337;28;20520;-63
2020/12/09 05:35:19;;;;;;;71.53;10.10;;;0.70;99.90;;;;;;5041450;28;20466;-63
2020/12/09 05:37:45;;;;;;;144.35;12.10;;;0.70;99.90;;;;;;5017309;28;20049;-64
2020/12/09 05:40:10;;;;;;;121.72;12.60;;;0.70;99.90;;;;;;5018842;28;20089;-64
2020/12/09 05:42:36;;;;;;;74.68;10.23;;;0.70;99.90;;;;;;5018882;28;20120;-63
2020/12/09 05:45:01;;;;;;;87.30;10.80;;;0.70;99.90;;;;;;5018171;28;20026;-64
2020/12/09 05:47:27;;;;;;;96.22;11.15;;;0.70;99.90;;;;;;5016384;28;20030;-64
2020/12/09 05:49:57;;;;;;;105.85;11.85;;;0.70;99.90;;;;;;5011370;28;20085;-63
2020/12/09 05:52:22;;;;;;;123.33;11.87;;;0.70;99.90;;;;;;5014365;28;20037;-64
2020/12/09 05:54:52;;;;;;;112.25;10.93;;;0.70;99.90;;;;;;5011343;28;20034;-63
2020/12/09 05:57:23;;;;;;;72.97;9.55;;;0.70;99.90;;;;;;5012111;28;20042;-63
2020/12/09 05:59:49;;;;;;;101.65;11.07;;;0.70;99.90;;;;;;5012454;28;20026;-64
2020/12/09 06:02:20;;;;;;;98.00;11.13;;;0.70;99.90;;;;;;5018858;28;20044;-63
2020/12/09 06:04:46;;;;;;;;;;;0.70;99.90;;;;;;5016982;28;20097;-63
2020/12/09 06:07:12;;;;;;;132.85;12.35;;;0.70;99.90;;;;;;5017750;28;20018;-63
2020/12/09 06:09:38;;;;;;;84.03;10.38;;;0.70;99.90;;;;;;5017158;28;20025;-64
2020/12/09 06:12:05;;;;;;;104.80;11.48;;;0.70;99.90;;;;;;5011794;28;20045;-63
2020/12/09 06:14:31;;;;;;;54.92;10.32;;;0.60;99.90;;;;;;5005876;28;20513;-63
2020/12/09 06:16:57;;;;;;;64.25;9.75;;;0.60;99.90;;;;;;5008723;28;20057;-63
2020/12/09 06:19:25;;;;;;;34.40;9.90;;;0.70;99.90;;;;;;5025357;28;20511;-64
2020/12/09 06:21:57;;;;;;;98.03;11.88;;;0.70;99.90;;;;;;5005238;28;20045;-63
2020/12/09 06:24:23;;;;;;;87.85;12.15;;;0.70;99.90;;;;;;5011045;28;20042;-63
2020/12/09 06:26:50;;;;;;;54.83;10.63;;;0.80;99.90;;;;;;5009013;28;20034;-64
2020/12/09 06:29:24;;;;;;;82.85;10.85;;;0.80;99.90;;;;;;5008945;28;20815;-64
2020/12/09 06:32:04;;;;;;;49.65;9.45;;;0.80;99.90;;;;;;5024272;28;20034;-64
2020/12/09 06:34:29;;;;;;;20.92;7.40;;;0.80;99.90;;;;;;5006867;28;20049;-64
2020/12/09 06:37:12;;;;;;;46.35;9.32;;;0.70;99.90;;;;;;5009205;28;20037;-64
2020/12/09 06:39:38;;;;;;;96.05;10.90;;;0.80;99.90;;;;;;5010108;28;20493;-63
2020/12/09 06:42:06;;;;;;;77.25;11.70;;;0.70;99.90;;;;;;5011345;28;20045;-64
2020/12/09 06:44:33;;;;;;;50.13;10.20;;;0.60;99.90;;;;;;5011098;28;20117;-64
2020/12/09 06:47:00;;;;;;;68.28;10.88;;;0.60;99.90;;;;;;5011654;28;20090;-64
2020/12/09 06:49:28;;;;;;;123.32;13.15;;;0.60;99.90;;;;;;5012080;28;20080;-64
2020/12/09 06:52:09;;;;;;;93.25;12.93;;;0.60;99.90;;;;;;5011488;28;20622;-64
2020/12/09 06:54:40;;;;;;;52.35;10.25;;;0.60;99.90;;;;;;5012177;28;20054;-63
2020/12/09 06:57:22;;;;;;;60.65;10.50;;;0.60;99.90;;;;;;5016338;28;20045;-64
2020/12/09 06:59:49;;;;;;;54.83;11.35;;;0.60;99.90;;;;;;5008489;28;20033;-64
2020/12/09 07:02:30;;;;;;;75.13;11.57;;;0.60;99.90;;;;;;5012800;28;20067;-62
2020/12/09 07:04:56;;;;;;;69.53;11.25;;;0.60;99.90;;;;;;5011941;28;20077;-63
2020/12/09 07:07:40;;;;;;;31.60;9.85;;;0.60;99.90;;;;;;5011807;28;20030;-63
2020/12/09 07:10:12;;;;;;;64.22;9.98;;;0.70;99.90;;;;;;5012517;28;20044;-62
2020/12/09 07:12:38;;;;;;;55.60;10.07;;;0.60;99.90;;;;;;5011579;28;20061;-64
2020/12/09 07:15:05;;;;;;;78.10;12.18;;;0.60;99.90;;;;;;5013808;28;20057;-63
2020/12/09 07:17:32;;;;;;;79.07;12.35;;;0.60;99.90;;;;;;5010910;28;20105;-62
2020/12/09 07:19:57;;;;;;;99.35;14.05;;;0.60;99.90;;;;;;5010687;28;20049;-64
2020/12/09 07:22:24;;;;;;;56.15;11.43;;;0.60;99.90;;;;;;5012772;28;20046;-63
2020/12/09 07:24:51;;;;;;;71.78;13.00;;;0.70;99.90;;;;;;5009129;28;20034;-64
2020/12/09 07:27:18;;;;;;;51.15;12.95;;;0.60;99.90;;;;;;5027554;28;20777;-64
2020/12/09 07:29:45;;;;;;;71.72;13.32;;;0.60;99.90;;;;;;5010574;28;20133;-64
2020/12/09 07:32:15;;;;;;;52.17;11.20;;;0.60;99.90;;;;;;5010962;28;20034;-65
2020/12/09 07:35:05;;;;;;;74.97;13.43;;;0.60;99.90;;;;;;5012554;28;20049;-66
2020/12/09 07:37:35;;;;;;;85.47;13.13;;;0.60;99.90;;;;;;5012125;28;20538;-63
2020/12/09 07:40:24;;;;;;;53.03;11.05;;;0.50;99.90;;;;;;5012111;28;20057;-64
2020/12/09 07:43:10;;;;;;;49.85;11.32;;;0.60;99.90;;;;;;5010252;28;20498;-63
2020/12/09 07:45:41;;;;;;;104.18;12.88;;;0.50;99.90;;;;;;5012280;28;20059;-63
2020/12/09 07:48:15;;;;;;;48.47;11.95;;;0.50;99.90;;;;;;5008855;28;20089;-63
2020/12/09 07:50:47;;;;;;;86.22;13.90;;;0.50;99.90;;;;;;5009182;28;20034;-62
2020/12/09 07:53:13;;;;;;;55.25;13.23;;;0.40;99.90;;;;;;5010329;28;20026;-63
2020/12/09 07:55:39;;;;;;;78.03;13.55;;;0.40;99.90;;;;;;5013389;28;20091;-62
2020/12/09 07:58:07;;;;;;;47.28;12.52;;;0.50;99.90;;;;;;5011318;28;20409;-63
2020/12/09 08:00:37;;;;;;;98.45;14.98;;;0.50;99.90;;;;;;5009993;28;20034;-64
2020/12/09 08:03:03;;;;;;;103.32;15.13;;;0.40;99.90;;;;;;5012202;28;20112;-64
2020/12/09 08:05:34;;;;;;;49.08;14.88;;;0.40;99.90;;;;;;5009420;28;20030;-65
2020/12/09 08:08:03;;;;;;;46.85;15.25;;;0.40;99.90;;;;;;5012544;28;20018;-64
2020/12/09 08:10:33;;;;;;;44.88;13.50;;;0.50;99.90;;;;;;5009535;28;20044;-63
2020/12/09 08:13:09;;;;;;;;;;;0.50;99.90;;;;;;5009490;28;20038;-62
2020/12/09 08:15:40;;;;;;;54.35;13.68;;;0.50;99.90;;;;;;5012153;28;19966;-65
2020/12/09 08:18:06;;;;;;;117.88;17.20;;;0.50;99.90;;;;;;5010421;28;20049;-64
2020/12/09 08:20:53;;;;;;;63.72;13.98;;;0.40;99.90;;;;;;5010745;28;20045;-65
2020/12/09 08:23:19;;;;;;;58.33;13.75;;;0.50;99.90;;;;;;5009052;28;20056;-64
2020/12/09 08:25:50;;;;;;;67.90;14.63;;;0.50;99.90;;;;;;5010677;28;20030;-65
2020/12/09 08:28:20;;;;;;;61.30;14.05;;;0.50;99.90;;;;;;5008393;28;20044;-64
2020/12/09 08:30:46;;;;;;;71.82;14.93;;;0.60;99.90;;;;;;5009274;28;20065;-63
2020/12/09 08:33:12;;;;;;;84.82;15.70;;;0.50;99.90;;;;;;5011129;28;20116;-63
2020/12/09 08:35:42;;;;;;;104.80;17.17;;;0.50;99.90;;;;;;5009673;28;20034;-64
2020/12/09 08:38:08;;;;;;;83.80;15.57;;;0.50;99.90;;;;;;5009443;28;20490;-65
2020/12/09 08:40:33;;;;;;;100.72;18.05;;;0.50;99.90;;;;;;5009345;28;20044;-63
2020/12/09 08:43:02;;;;;;;59.28;15.95;;;0.50;99.90;;;;;;5011126;28;20025;-64
2020/12/09 08:48:50;;;;;;;64.25;18.00;;;0.50;99.90;;;;;;5009310;28;20037;-65
2020/12/09 08:51:21;;;;;;;72.63;16.67;;;0.50;99.90;;;;;;5005712;28;20493;-63
2020/12/09 08:53:47;;;;;;;;;;;0.50;99.90;;;;;;5009268;28;20100;-65
2020/12/09 08:56:12;;;;;;;55.40;15.07;;;0.50;99.90;;;;;;5011282;28;20354;-65
2020/12/09 08:58:38;;;;;;;49.20;13.90;;;0.50;99.90;;;;;;5009023;28;20411;-64
2020/12/09 09:01:03;;;;;;;58.30;15.63;;;0.50;99.90;;;;;;5007390;28;20042;-63
2020/12/09 09:03:29;;;;;;;41.47;13.25;;;0.60;99.90;;;;;;5008896;28;20030;-65
2020/12/09 09:05:56;;;;;;;57.22;14.95;;;0.60;99.90;;;;;;5007809;28;20056;-65
2020/12/09 09:08:22;;;;;;;67.65;13.07;;;0.60;99.90;;;;;;5018238;28;20038;-64
2020/12/09 09:10:48;;;;;;;59.72;13.77;;;0.60;99.90;;;;;;5009197;28;20093;-64
2020/12/09 09:13:14;;;;;;;53.05;11.52;;;0.60;99.90;;;;;;5007056;28;20042;-62
2020/12/09 09:15:40;;;;;;;38.85;11.68;;;0.70;99.90;;;;;;5024250;28;20321;-67
2020/12/09 09:18:07;;;;;;;46.10;12.60;;;0.70;99.90;;;;;;5009087;28;20539;-67
2020/12/09 09:20:34;;;;;;;35.10;11.60;;;0.60;99.90;;;;;;5010313;28;20032;-65
2020/12/09 09:23:00;;;;;;;50.03;12.48;;;0.60;99.90;;;;;;5010709;28;20049;-65
2020/12/09 09:25:26;;;;;;;47.25;14.07;;;0.70;99.90;;;;;;5007321;28;20030;-64
2020/12/09 09:27:52;;;;;;;39.65;13.95;;;0.70;99.90;;;;;;5009917;28;20033;-65
2020/12/09 09:30:19;;;;;;;42.78;13.82;;;0.70;99.90;;;;;;5011200;28;20033;-65
2020/12/09 09:32:45;;;;;;;62.15;15.82;;;0.80;99.90;;;;;;5010931;28;20501;-64
2020/12/09 09:35:11;;;;;;;43.85;14.15;;;0.70;99.90;;;;;;5008136;28;20209;-64
2020/12/09 09:37:37;;;;;;;41.45;13.23;;;0.80;99.90;;;;;;5008662;28;20048;-63
2020/12/09 09:40:03;;;;;;;40.28;14.45;;;0.80;99.90;;;;;;5008145;28;20034;-64
2020/12/09 09:42:29;;;;;;;42.45;15.32;;;0.90;99.90;;;;;;5004828;28;20058;-64
2020/12/09 09:44:54;;;;;;;42.53;14.25;;;0.80;99.90;;;;;;5008521;28;20041;-63
2020/12/09 09:47:20;;;;;;;48.63;15.77;;;1.00;99.90;;;;;;5009158;28;20030;-65
2020/12/09 09:49:45;;;;;;;47.97;14.60;;;1.00;99.90;;;;;;5009923;28;20037;-66
2020/12/09 09:52:11;;;;;;;44.28;15.40;;;1.00;99.90;;;;;;5008471;28;20140;-63
2020/12/09 09:54:37;;;;;;;47.03;15.20;;;1.10;99.90;;;;;;5010010;28;20077;-64
2020/12/09 09:57:04;;;;;;;37.22;15.27;;;1.00;99.90;;;;;;5005620;28;20060;-64
2020/12/09 09:59:30;;;;;;;41.38;14.48;;;1.10;99.90;;;;;;5005336;28;20044;-64
2020/12/09 10:01:56;;;;;;;50.30;13.18;;;1.10;99.90;;;;;;5009720;28;20132;-64
2020/12/09 10:04:22;;;;;;;44.00;13.75;;;1.20;99.90;;;;;;5011173;28;20064;-64
2020/12/09 10:06:50;;;;;;;57.00;14.48;;;1.20;99.90;;;;;;5006270;28;20269;-63
2020/12/09 10:09:16;;;;;;;43.80;13.77;;;1.20;99.90;;;;;;5008586;28;20514;-64
2020/12/09 10:11:42;;;;;;;43.45;12.85;;;1.20;99.90;;;;;;5008446;28;20038;-63
2020/12/09 10:14:08;;;;;;;39.40;13.20;;;1.30;99.90;;;;;;5009357;28;20049;-62
2020/12/09 10:16:34;;;;;;;31.13;12.27;;;1.30;99.90;;;;;;5008869;28;20037;-63
2020/12/09 10:19:00;;;;;;;43.42;15.45;;;1.30;99.90;;;;;;5011007;28;20437;-64
2020/12/09 10:21:29;;;;;;;33.92;12.95;;;1.30;99.90;;;;;;5012161;28;20045;-63
2020/12/09 10:23:55;;;;;;;29.35;12.10;;;1.30;99.90;;;;;;5013020;28;20040;-65
2020/12/09 10:26:40;;;;;;;35.15;11.95;;;1.30;99.90;;;;;;5011156;28;20064;-63
2020/12/09 10:29:08;;;;;;;40.30;12.70;;;1.30;99.90;;;;;;5013013;28;20042;-64
2020/12/09 10:31:33;;;;;;;41.00;13.02;;;1.40;99.90;;;;;;5011144;28;20042;-63
2020/12/09 10:34:00;;;;;;;30.45;11.77;;;1.40;99.90;;;;;;5012967;28;20440;-63
2020/12/09 10:36:25;;;;;;;28.52;12.02;;;1.30;99.90;;;;;;5010053;28;20044;-63
2020/12/09 10:38:51;;;;;;;37.40;12.23;;;1.30;99.90;;;;;;5013526;28;20125;-65
2020/12/09 10:41:17;;;;;;;37.38;12.57;;;1.40;99.90;;;;;;5027860;23;20076;-61
2020/12/09 10:43:43;;;;;;;44.88;12.90;;;1.50;99.90;;;;;;5012282;28;20053;-60
2020/12/09 10:46:08;;;;;;;39.55;14.15;;;1.50;99.90;;;;;;5008247;28;20030;-60
2020/12/09 10:48:34;;;;;;;36.63;14.50;;;1.50;99.90;;;;;;5008292;28;20040;-60
2020/12/09 10:51:00;;;;;;;44.78;14.13;;;1.40;99.90;;;;;;5008317;28;20459;-62
2020/12/09 10:53:25;;;;;;;45.03;15.80;;;1.50;99.90;;;;;;5009395;28;20057;-61
2020/12/09 10:55:51;;;;;;;45.60;15.20;;;1.50;99.90;;;;;;5006988;28;20038;-61
2020/12/09 10:58:16;;;;;;;38.78;14.23;;;1.50;99.90;;;;;;5009294;28;20057;-61
2020/12/09 11:00:42;;;;;;;44.80;13.60;;;1.50;99.90;;;;;;5010206;28;20060;-61
2020/12/09 11:03:07;;;;;;;44.97;13.70;;;1.60;99.90;;;;;;5009431;28;20548;-61
2020/12/09 11:05:33;;;;;;;37.63;14.07;;;1.50;99.90;;;;;;5009795;28;20493;-60
2020/12/09 11:07:58;;;;;;;42.10;13.35;;;1.50;99.90;;;;;;5009385;28;20490;-61
2020/12/09 11:10:24;;;;;;;43.20;14.20;;;1.50;99.90;;;;;;5007841;28;20486;-61
2020/12/09 11:12:50;;;;;;;44.03;14.60;;;1.50;99.90;;;;;;5007653;28;20030;-60
2020/12/09 11:15:15;;;;;;;37.30;13.60;;;1.50;99.90;;;;;;5007164;28;20056;-61
2020/12/09 11:17:41;;;;;;;42.88;14.43;;;1.60;99.90;;;;;;5009695;28;20065;-60
2020/12/09 11:20:07;;;;;;;43.25;14.95;;;1.60;99.90;;;;;;5008739;28;20117;-61
2020/12/09 11:22:32;;;;;;;47.17;15.50;;;1.70;99.90;;;;;;5007703;28;20399;-61
2020/12/09 11:24:58;;;;;;;42.80;15.80;;;1.80;99.90;;;;;;5008662;28;20045;-60
2020/12/09 11:27:23;;;;;;;43.55;14.43;;;1.80;99.90;;;;;;5008707;28;20088;-60
2020/12/09 11:29:49;;;;;;;48.25;14.65;;;1.80;99.90;;;;;;5009244;28;20076;-62
2020/12/09 11:32:15;;;;;;;48.72;16.77;;;1.90;99.90;;;;;;5007022;28;20513;-61
2020/12/09 11:34:41;;;;;;;46.17;16.08;;;1.80;99.90;;;;;;5009066;28;20038;-60
2020/12/09 11:37:06;;;;;;;54.67;15.52;;;1.90;99.90;;;;;;5008849;28;20412;-61
2020/12/09 11:39:32;;;;;;;49.65;16.27;;;1.80;99.90;;;;;;5008559;28;20113;-62
2020/12/09 11:41:59;;;;;;;53.90;17.48;;;1.80;99.90;;;;;;5008912;28;20045;-60
2020/12/09 11:44:24;;;;;;;56.38;18.08;;;1.90;99.90;;;;;;5008512;28;20030;-62
2020/12/09 11:46:50;;;;;;;49.53;15.95;;;1.90;99.90;;;;;;5008999;28;20091;-61
2020/12/09 11:49:15;;;;;;;52.33;16.67;;;2.00;99.90;;;;;;5008249;28;20034;-61
2020/12/09 11:51:41;;;;;;;49.78;16.40;;;1.90;99.90;;;;;;5008707;28;20042;-61
2020/12/09 11:54:06;;;;;;;45.70;16.02;;;1.90;99.90;;;;;;5008772;28;20034;-63
2020/12/09 11:56:32;;;;;;;44.92;15.73;;;1.80;99.90;;;;;;5008004;28;20041;-62
2020/12/09 11:58:58;;;;;;;55.72;18.13;;;1.90;99.90;;;;;;5008405;28;20022;-61
2020/12/09 12:01:24;;;;;;;54.00;16.13;;;1.90;99.90;;;;;;5007425;28;20044;-59
2020/12/09 12:03:50;;;;;;;54.95;17.20;;;2.00;99.90;;;;;;5006582;28;20495;-59
2020/12/09 12:06:28;;;;;;;61.53;17.77;;;2.00;99.90;;;;;;5006605;28;20037;-61
2020/12/09 12:08:54;;;;;;;48.75;16.15;;;1.90;99.90;;;;;;5008113;28;20088;-62
2020/12/09 12:11:22;;;;;;;59.53;18.50;;;1.90;99.90;;;;;;5008013;28;20034;-60
2020/12/09 12:13:48;;;;;;;50.63;17.48;;;1.90;99.90;;;;;;5008347;28;20033;-62
2020/12/09 12:16:16;;;;;;;51.13;16.27;;;1.90;99.90;;;;;;5006968;28;20042;-62
2020/12/09 12:18:42;;;;;;;46.92;17.35;;;1.90;99.90;;;;;;5007280;28;20822;-59
2020/12/09 12:21:14;;;;;;;51.60;16.98;;;1.90;99.90;;;;;;5007273;28;20030;-60
2020/12/09 12:23:40;;;;;;;51.80;18.15;;;2.00;99.90;;;;;;5006948;28;20129;-59
2020/12/09 12:26:06;;;;;;;50.40;16.25;;;2.00;99.90;;;;;;5007810;28;20034;-61
2020/12/09 12:28:32;;;;;;;49.90;16.40;;;2.00;99.90;;;;;;5007549;28;20034;-62
2020/12/09 12:30:58;;;;;;;50.20;15.15;;;2.00;99.90;;;;;;5007313;28;20030;-60
2020/12/09 12:33:24;;;;;;;44.53;14.80;;;2.00;99.90;;;;;;5007463;28;20080;-61
2020/12/09 12:35:50;;;;;;;47.45;16.65;;;2.00;99.90;;;;;;5007084;28;20080;-59
2020/12/09 12:38:15;;;;;;;50.80;16.20;;;2.00;99.90;;;;;;5005770;28;20046;-60
2020/12/09 12:40:41;;;;;;;53.13;17.40;;;2.00;99.90;;;;;;5006888;28;20204;-61
2020/12/09 12:43:07;;;;;;;57.35;18.05;;;2.00;99.90;;;;;;5006882;28;20117;-60